AWK503 NZAA-NZDN
Flight info
| Callsign | AWK503 |
|---|---|
| Flight time | 1h 40m |
| Altitude | 36000 |
| Route | KAPAI Y320 LAKAR Y874 MIPAK |
| Aircraft | B738/M-SDE2E3FGHIRWXY/LB1 |
Departure
| Time | 2026-04-26 16:12 |
|---|---|
| Airport | Auckland International Airport (NZAA) |
Arrival
| Time | 2026-04-26 17:53 |
|---|---|
| Airport | Dunedin International Airport (NZDN) |
| Time | Latitude | Longitude | Altitude | Speed | Heading |
|---|---|---|---|---|---|
| 2026-04-26 16:08 | -37.00424 | 174.80152 | 26 ft | 0 kts | 157° |
| 2026-04-26 16:09 | -37.00429 | 174.80155 | 29 ft | 4 kts | 157° |
| 2026-04-26 16:09 | -37.00467 | 174.80215 | 26 ft | 11 kts | 88° |
| 2026-04-26 16:09 | -37.00448 | 174.80318 | 26 ft | 13 kts | 95° |
| 2026-04-26 16:09 | -37.00519 | 174.80392 | 25 ft | 14 kts | 143° |
| 2026-04-26 16:10 | -37.00581 | 174.80473 | 28 ft | 12 kts | 130° |
| 2026-04-26 16:10 | -37.00645 | 174.80530 | 25 ft | 12 kts | 175° |
| 2026-04-26 16:10 | -37.00692 | 174.80491 | 28 ft | 8 kts | 253° |
| 2026-04-26 16:10 | -37.00700 | 174.80456 | 24 ft | 0 kts | 249° |
| 2026-04-26 16:11 | -37.00720 | 174.80388 | 24 ft | 29 kts | 251° |
| 2026-04-26 16:12 | -37.00856 | 174.79893 | 26 ft | 92 kts | 251° |
| 2026-04-26 16:12 | -37.01123 | 174.78919 | 25 ft | 142 kts | 250° |
| 2026-04-26 16:12 | -37.01781 | 174.76399 | 904 ft | 159 kts | 252° |
| 2026-04-26 16:13 | -37.02123 | 174.75032 | 1321 ft | 170 kts | 251° |
| 2026-04-26 16:13 | -37.02488 | 174.73617 | 1907 ft | 174 kts | 249° |
| 2026-04-26 16:13 | -37.02819 | 174.72495 | 2081 ft | 193 kts | 248° |
| 2026-04-26 16:13 | -37.02971 | 174.71986 | 2167 ft | 199 kts | 249° |
| 2026-04-26 16:14 | -37.03472 | 174.70281 | 2345 ft | 218 kts | 249° |
| 2026-04-26 16:14 | -37.04014 | 174.68409 | 2513 ft | 239 kts | 248° |
| 2026-04-26 16:14 | -37.06628 | 174.65907 | 3662 ft | 252 kts | 200° |
| 2026-04-26 16:15 | -37.08299 | 174.65207 | 4409 ft | 253 kts | 200° |
| 2026-04-26 16:15 | -37.09970 | 174.64495 | 5170 ft | 254 kts | 200° |
| 2026-04-26 16:15 | -37.11658 | 174.63758 | 5750 ft | 262 kts | 201° |
| 2026-04-26 16:16 | -37.15174 | 174.62166 | 6934 ft | 274 kts | 201° |
| 2026-04-26 16:16 | -37.16969 | 174.61339 | 7661 ft | 274 kts | 201° |
| 2026-04-26 16:16 | -37.18762 | 174.60507 | 8405 ft | 276 kts | 201° |
| 2026-04-26 16:16 | -37.20576 | 174.59663 | 9106 ft | 279 kts | 201° |
| 2026-04-26 16:17 | -37.22409 | 174.58808 | 9828 ft | 282 kts | 201° |
| 2026-04-26 16:17 | -37.24280 | 174.58037 | 10499 ft | 287 kts | 193° |
| 2026-04-26 16:17 | -37.26313 | 174.57574 | 10714 ft | 308 kts | 189° |
| 2026-04-26 16:17 | -37.28513 | 174.57200 | 10884 ft | 329 kts | 188° |
| 2026-04-26 16:18 | -37.30858 | 174.56816 | 11041 ft | 349 kts | 188° |
| 2026-04-26 16:18 | -37.35822 | 174.55951 | 11941 ft | 366 kts | 188° |
| 2026-04-26 16:19 | -37.40885 | 174.55011 | 13286 ft | 370 kts | 189° |
| 2026-04-26 16:19 | -37.43410 | 174.54533 | 13932 ft | 373 kts | 189° |
| 2026-04-26 16:19 | -37.47743 | 174.53710 | 14956 ft | 378 kts | 189° |
| 2026-04-26 16:20 | -37.51209 | 174.53051 | 15801 ft | 382 kts | 189° |
| 2026-04-26 16:20 | -37.56382 | 174.51393 | 17041 ft | 388 kts | 203° |
| 2026-04-26 16:20 | -37.58864 | 174.50042 | 17647 ft | 391 kts | 204° |
| 2026-04-26 16:21 | -37.61361 | 174.48657 | 18291 ft | 393 kts | 204° |
| 2026-04-26 16:21 | -37.63873 | 174.47262 | 18844 ft | 396 kts | 204° |
| 2026-04-26 16:21 | -37.66402 | 174.45863 | 19343 ft | 399 kts | 204° |
| 2026-04-26 16:21 | -37.68959 | 174.44456 | 19844 ft | 402 kts | 204° |
| 2026-04-26 16:22 | -37.71536 | 174.43044 | 20346 ft | 405 kts | 204° |
| 2026-04-26 16:22 | -37.74126 | 174.41628 | 20849 ft | 408 kts | 204° |
| 2026-04-26 16:22 | -37.76747 | 174.40198 | 21336 ft | 410 kts | 204° |
| 2026-04-26 16:22 | -37.79375 | 174.38764 | 21795 ft | 413 kts | 204° |
| 2026-04-26 16:23 | -37.82027 | 174.37316 | 22262 ft | 416 kts | 204° |
| 2026-04-26 16:23 | -37.84689 | 174.35862 | 22744 ft | 418 kts | 204° |
| 2026-04-26 16:23 | -37.87370 | 174.34396 | 23182 ft | 421 kts | 204° |
| 2026-04-26 16:23 | -37.90065 | 174.32922 | 23600 ft | 424 kts | 204° |
| 2026-04-26 16:24 | -37.92754 | 174.31449 | 23973 ft | 427 kts | 204° |
| 2026-04-26 16:24 | -37.95483 | 174.29954 | 24334 ft | 429 kts | 204° |
| 2026-04-26 16:24 | -37.98227 | 174.28449 | 24716 ft | 430 kts | 204° |
| 2026-04-26 16:24 | -38.00975 | 174.26941 | 25073 ft | 432 kts | 204° |
| 2026-04-26 16:25 | -38.02852 | 174.25910 | 25303 ft | 434 kts | 204° |
| 2026-04-26 16:25 | -38.05622 | 174.24387 | 25659 ft | 435 kts | 204° |
| 2026-04-26 16:25 | -38.08367 | 174.22877 | 26054 ft | 436 kts | 204° |
| 2026-04-26 16:25 | -38.11148 | 174.21346 | 26403 ft | 437 kts | 204° |
| 2026-04-26 16:26 | -38.13949 | 174.19803 | 26706 ft | 440 kts | 204° |
| 2026-04-26 16:26 | -38.16758 | 174.18253 | 26999 ft | 442 kts | 204° |
| 2026-04-26 16:26 | -38.19586 | 174.16693 | 27315 ft | 444 kts | 204° |
| 2026-04-26 16:26 | -38.22424 | 174.15125 | 27616 ft | 445 kts | 204° |
| 2026-04-26 16:27 | -38.25279 | 174.13546 | 27911 ft | 447 kts | 204° |
| 2026-04-26 16:27 | -38.28140 | 174.11963 | 28196 ft | 449 kts | 204° |
| 2026-04-26 16:27 | -38.31011 | 174.10372 | 28481 ft | 450 kts | 204° |
| 2026-04-26 16:27 | -38.33880 | 174.08782 | 28859 ft | 450 kts | 204° |
| 2026-04-26 16:28 | -38.36744 | 174.07193 | 29330 ft | 447 kts | 204° |
| 2026-04-26 16:28 | -38.39590 | 174.05612 | 29810 ft | 445 kts | 204° |
| 2026-04-26 16:28 | -38.42425 | 174.04037 | 30225 ft | 444 kts | 204° |
| 2026-04-26 16:28 | -38.45218 | 174.02483 | 30549 ft | 443 kts | 204° |
| 2026-04-26 16:29 | -38.48047 | 174.00908 | 30867 ft | 443 kts | 204° |
| 2026-04-26 16:29 | -38.50863 | 173.99338 | 31207 ft | 442 kts | 204° |
| 2026-04-26 16:29 | -38.53675 | 173.97771 | 31590 ft | 439 kts | 204° |
| 2026-04-26 16:29 | -38.56473 | 173.96209 | 31939 ft | 438 kts | 204° |
| 2026-04-26 16:30 | -38.59268 | 173.94647 | 32226 ft | 438 kts | 204° |
| 2026-04-26 16:30 | -38.62058 | 173.93087 | 32510 ft | 438 kts | 204° |
| 2026-04-26 16:30 | -38.64850 | 173.91525 | 32822 ft | 437 kts | 204° |
| 2026-04-26 16:30 | -38.67629 | 173.89968 | 33137 ft | 436 kts | 204° |
| 2026-04-26 16:31 | -38.70414 | 173.88407 | 33400 ft | 437 kts | 204° |
| 2026-04-26 16:31 | -38.73191 | 173.86849 | 33709 ft | 436 kts | 204° |
| 2026-04-26 16:31 | -38.75972 | 173.85287 | 34073 ft | 434 kts | 204° |
| 2026-04-26 16:31 | -38.78725 | 173.83740 | 34398 ft | 432 kts | 204° |
| 2026-04-26 16:32 | -38.81479 | 173.82191 | 34613 ft | 432 kts | 205° |
| 2026-04-26 16:32 | -38.84232 | 173.80641 | 34802 ft | 433 kts | 205° |
| 2026-04-26 16:32 | -38.86993 | 173.79085 | 35027 ft | 433 kts | 205° |
| 2026-04-26 16:32 | -38.89743 | 173.77534 | 35276 ft | 432 kts | 205° |
| 2026-04-26 16:33 | -38.92493 | 173.75981 | 35534 ft | 431 kts | 205° |
| 2026-04-26 16:33 | -38.95234 | 173.74433 | 35749 ft | 431 kts | 205° |
| 2026-04-26 16:33 | -38.97977 | 173.72882 | 36003 ft | 430 kts | 205° |
| 2026-04-26 16:33 | -39.00704 | 173.71339 | 36229 ft | 429 kts | 205° |
| 2026-04-26 16:34 | -39.06253 | 173.68362 | 36202 ft | 432 kts | 201° |
| 2026-04-26 16:34 | -39.11960 | 173.66011 | 36210 ft | 429 kts | 199° |
| 2026-04-26 16:35 | -39.17663 | 173.63775 | 36206 ft | 427 kts | 199° |
| 2026-04-26 16:35 | -39.23281 | 173.61526 | 36202 ft | 425 kts | 200° |
| 2026-04-26 16:36 | -39.28912 | 173.59231 | 36206 ft | 423 kts | 200° |
| 2026-04-26 16:36 | -39.34518 | 173.56927 | 36201 ft | 423 kts | 200° |
| 2026-04-26 16:37 | -39.40121 | 173.54617 | 36211 ft | 423 kts | 200° |
| 2026-04-26 16:37 | -39.45739 | 173.52298 | 36189 ft | 424 kts | 200° |
| 2026-04-26 16:38 | -39.51367 | 173.49972 | 36193 ft | 425 kts | 200° |
| 2026-04-26 16:38 | -39.57000 | 173.47640 | 36188 ft | 425 kts | 200° |
| 2026-04-26 16:39 | -39.62650 | 173.45297 | 36198 ft | 426 kts | 200° |
| 2026-04-26 16:39 | -39.68302 | 173.42949 | 36183 ft | 427 kts | 200° |
| 2026-04-26 16:40 | -39.73917 | 173.40613 | 36174 ft | 426 kts | 200° |
| 2026-04-26 16:40 | -39.79576 | 173.38254 | 36167 ft | 426 kts | 200° |
| 2026-04-26 16:41 | -39.85209 | 173.35903 | 36180 ft | 425 kts | 201° |
| 2026-04-26 16:41 | -39.90831 | 173.33552 | 36161 ft | 423 kts | 201° |
| 2026-04-26 16:42 | -39.96395 | 173.31221 | 36151 ft | 421 kts | 201° |
| 2026-04-26 16:42 | -40.01964 | 173.28883 | 36144 ft | 420 kts | 201° |
| 2026-04-26 16:43 | -40.07516 | 173.26549 | 36155 ft | 418 kts | 201° |
| 2026-04-26 16:43 | -40.13044 | 173.24220 | 36141 ft | 417 kts | 201° |
| 2026-04-26 16:44 | -40.18556 | 173.21895 | 36142 ft | 416 kts | 201° |
| 2026-04-26 16:44 | -40.24062 | 173.19568 | 36140 ft | 415 kts | 201° |
| 2026-04-26 16:45 | -40.29556 | 173.17241 | 36149 ft | 415 kts | 201° |
| 2026-04-26 16:45 | -40.35058 | 173.14908 | 36126 ft | 416 kts | 201° |
| 2026-04-26 16:46 | -40.40585 | 173.12559 | 36141 ft | 419 kts | 201° |
| 2026-04-26 16:46 | -40.46163 | 173.10185 | 36135 ft | 422 kts | 201° |
| 2026-04-26 16:47 | -40.51767 | 173.07797 | 36130 ft | 424 kts | 201° |
| 2026-04-26 16:47 | -40.57348 | 173.05414 | 36125 ft | 424 kts | 201° |
| 2026-04-26 16:48 | -40.62945 | 173.03021 | 36124 ft | 423 kts | 201° |
| 2026-04-26 16:48 | -40.68550 | 173.00620 | 36134 ft | 421 kts | 201° |
| 2026-04-26 16:49 | -40.74116 | 172.98231 | 36126 ft | 420 kts | 202° |
| 2026-04-26 16:49 | -40.79670 | 172.95843 | 36122 ft | 418 kts | 202° |
| 2026-04-26 16:50 | -40.85163 | 172.93477 | 36129 ft | 417 kts | 202° |
| 2026-04-26 16:50 | -40.90670 | 172.91099 | 36125 ft | 416 kts | 202° |
| 2026-04-26 16:51 | -40.96166 | 172.88724 | 36125 ft | 415 kts | 202° |
| 2026-04-26 16:51 | -41.01649 | 172.86349 | 36117 ft | 414 kts | 202° |
| 2026-04-26 16:52 | -41.06232 | 172.84362 | 36123 ft | 413 kts | 202° |
| 2026-04-26 16:52 | -41.12574 | 172.81606 | 36151 ft | 412 kts | 202° |
| 2026-04-26 16:53 | -41.18017 | 172.79235 | 36128 ft | 412 kts | 202° |
| 2026-04-26 16:53 | -41.23450 | 172.76866 | 36120 ft | 410 kts | 203° |
| 2026-04-26 16:54 | -41.28865 | 172.74503 | 36131 ft | 408 kts | 202° |
| 2026-04-26 16:54 | -41.34257 | 172.72144 | 36145 ft | 407 kts | 203° |
| 2026-04-26 16:55 | -41.39638 | 172.69784 | 36150 ft | 407 kts | 203° |
| 2026-04-26 16:55 | -41.45012 | 172.67425 | 36141 ft | 406 kts | 203° |
| 2026-04-26 16:56 | -41.53054 | 172.63891 | 36158 ft | 405 kts | 203° |
| 2026-04-26 16:57 | -41.58363 | 172.61543 | 36158 ft | 405 kts | 204° |
| 2026-04-26 16:57 | -41.66395 | 172.57990 | 36150 ft | 406 kts | 204° |
| 2026-04-26 16:58 | -41.70855 | 172.56014 | 36156 ft | 406 kts | 204° |
| 2026-04-26 16:59 | -41.79813 | 172.52037 | 36155 ft | 406 kts | 204° |
| 2026-04-26 17:00 | -41.90506 | 172.47276 | 36146 ft | 405 kts | 204° |
| 2026-04-26 17:00 | -41.98516 | 172.43698 | 36153 ft | 404 kts | 204° |
| 2026-04-26 17:01 | -42.03842 | 172.41313 | 36127 ft | 402 kts | 204° |
| 2026-04-26 17:01 | -42.09133 | 172.38945 | 36149 ft | 399 kts | 204° |
| 2026-04-26 17:02 | -42.14395 | 172.36578 | 36155 ft | 398 kts | 204° |
| 2026-04-26 17:02 | -42.19656 | 172.34209 | 36158 ft | 398 kts | 204° |
| 2026-04-26 17:03 | -42.24902 | 172.31848 | 36158 ft | 397 kts | 204° |
| 2026-04-26 17:03 | -42.30130 | 172.29485 | 36150 ft | 396 kts | 205° |
| 2026-04-26 17:04 | -42.35353 | 172.27118 | 36145 ft | 396 kts | 204° |
| 2026-04-26 17:04 | -42.40551 | 172.24684 | 36163 ft | 395 kts | 206° |
| 2026-04-26 17:05 | -42.45722 | 172.22228 | 36141 ft | 396 kts | 204° |
| 2026-04-26 17:05 | -42.50969 | 172.19977 | 36148 ft | 396 kts | 204° |
| 2026-04-26 17:06 | -42.56194 | 172.17647 | 36147 ft | 394 kts | 205° |
| 2026-04-26 17:06 | -42.61395 | 172.15275 | 36130 ft | 395 kts | 205° |
| 2026-04-26 17:07 | -42.66600 | 172.12891 | 36136 ft | 395 kts | 205° |
| 2026-04-26 17:07 | -42.71816 | 172.10501 | 36149 ft | 395 kts | 205° |
| 2026-04-26 17:08 | -42.77032 | 172.08103 | 36155 ft | 396 kts | 205° |
| 2026-04-26 17:08 | -42.82251 | 172.05707 | 36146 ft | 395 kts | 205° |
| 2026-04-26 17:09 | -42.85702 | 172.04120 | 36128 ft | 395 kts | 205° |
| 2026-04-26 17:09 | -42.92663 | 172.00909 | 36107 ft | 395 kts | 205° |
| 2026-04-26 17:10 | -42.97829 | 171.98525 | 36120 ft | 394 kts | 205° |
| 2026-04-26 17:10 | -43.03012 | 171.96126 | 36103 ft | 393 kts | 205° |
| 2026-04-26 17:11 | -43.08192 | 171.93725 | 36106 ft | 392 kts | 205° |
| 2026-04-26 17:11 | -43.13359 | 171.91324 | 36110 ft | 391 kts | 206° |
| 2026-04-26 17:12 | -43.21085 | 171.87725 | 36092 ft | 391 kts | 206° |
| 2026-04-26 17:13 | -43.28758 | 171.84143 | 36078 ft | 389 kts | 206° |
| 2026-04-26 17:14 | -43.36440 | 171.80545 | 36094 ft | 389 kts | 206° |
| 2026-04-26 17:14 | -43.44115 | 171.76944 | 36073 ft | 388 kts | 206° |
| 2026-04-26 17:15 | -43.50902 | 171.73750 | 36072 ft | 387 kts | 206° |
| 2026-04-26 17:16 | -43.56012 | 171.71340 | 36061 ft | 388 kts | 206° |
| 2026-04-26 17:16 | -43.61084 | 171.68943 | 36055 ft | 388 kts | 206° |
| 2026-04-26 17:17 | -43.66187 | 171.66528 | 36052 ft | 388 kts | 206° |
| 2026-04-26 17:17 | -43.71297 | 171.64106 | 36044 ft | 388 kts | 207° |
| 2026-04-26 17:18 | -43.76406 | 171.61679 | 36054 ft | 389 kts | 207° |
| 2026-04-26 17:18 | -43.81522 | 171.59244 | 36046 ft | 389 kts | 207° |
| 2026-04-26 17:19 | -43.89202 | 171.55581 | 36040 ft | 389 kts | 207° |
| 2026-04-26 17:19 | -43.94328 | 171.53131 | 36048 ft | 390 kts | 207° |
| 2026-04-26 17:20 | -43.98592 | 171.51090 | 36036 ft | 390 kts | 207° |
| 2026-04-26 17:20 | -44.04553 | 171.48231 | 36041 ft | 390 kts | 207° |
| 2026-04-26 17:21 | -44.09685 | 171.45764 | 36036 ft | 390 kts | 207° |
| 2026-04-26 17:21 | -44.14823 | 171.43288 | 36052 ft | 391 kts | 206° |
| 2026-04-26 17:22 | -44.19968 | 171.40807 | 36041 ft | 392 kts | 206° |
| 2026-04-26 17:22 | -44.25121 | 171.38317 | 36041 ft | 392 kts | 206° |
| 2026-04-26 17:23 | -44.30270 | 171.35825 | 36059 ft | 392 kts | 206° |
| 2026-04-26 17:23 | -44.35426 | 171.33323 | 36046 ft | 392 kts | 206° |
| 2026-04-26 17:24 | -44.40584 | 171.30817 | 36037 ft | 393 kts | 206° |
| 2026-04-26 17:24 | -44.45754 | 171.28300 | 36044 ft | 393 kts | 206° |
| 2026-04-26 17:25 | -44.50876 | 171.25807 | 36042 ft | 392 kts | 207° |
| 2026-04-26 17:25 | -44.56031 | 171.23284 | 36055 ft | 392 kts | 207° |
| 2026-04-26 17:26 | -44.58613 | 171.22017 | 35695 ft | 398 kts | 207° |
| 2026-04-26 17:26 | -44.61231 | 171.20731 | 35158 ft | 397 kts | 207° |
| 2026-04-26 17:26 | -44.63830 | 171.19458 | 34549 ft | 396 kts | 207° |
| 2026-04-26 17:26 | -44.66433 | 171.18182 | 33878 ft | 396 kts | 207° |
| 2026-04-26 17:27 | -44.69046 | 171.16898 | 33108 ft | 397 kts | 207° |
| 2026-04-26 17:27 | -44.71650 | 171.15617 | 32380 ft | 398 kts | 207° |
| 2026-04-26 17:27 | -44.74268 | 171.14329 | 31669 ft | 397 kts | 207° |
| 2026-04-26 17:27 | -44.76866 | 171.13051 | 31156 ft | 393 kts | 207° |
| 2026-04-26 17:28 | -44.79436 | 171.11788 | 30638 ft | 389 kts | 207° |
| 2026-04-26 17:28 | -44.81977 | 171.10537 | 30148 ft | 384 kts | 207° |
| 2026-04-26 17:28 | -44.84487 | 171.09298 | 29619 ft | 380 kts | 207° |
| 2026-04-26 17:28 | -44.86930 | 171.08092 | 29104 ft | 374 kts | 207° |
| 2026-04-26 17:29 | -44.89369 | 171.06885 | 28623 ft | 368 kts | 207° |
| 2026-04-26 17:29 | -44.90993 | 171.06081 | 28286 ft | 365 kts | 207° |
| 2026-04-26 17:29 | -44.94140 | 171.04521 | 27650 ft | 359 kts | 207° |
| 2026-04-26 17:29 | -44.96482 | 171.03358 | 27170 ft | 355 kts | 207° |
| 2026-04-26 17:30 | -44.98798 | 171.02206 | 26705 ft | 351 kts | 207° |
| 2026-04-26 17:30 | -45.01090 | 171.01065 | 26228 ft | 347 kts | 207° |
| 2026-04-26 17:30 | -45.03357 | 170.99936 | 25789 ft | 344 kts | 207° |
| 2026-04-26 17:30 | -45.05609 | 170.98813 | 25322 ft | 341 kts | 207° |
| 2026-04-26 17:31 | -45.07838 | 170.97701 | 24855 ft | 339 kts | 207° |
| 2026-04-26 17:31 | -45.10054 | 170.96595 | 24410 ft | 336 kts | 207° |
| 2026-04-26 17:31 | -45.12253 | 170.95496 | 23967 ft | 334 kts | 207° |
| 2026-04-26 17:31 | -45.14431 | 170.94408 | 23503 ft | 331 kts | 207° |
| 2026-04-26 17:32 | -45.16598 | 170.93323 | 22999 ft | 329 kts | 207° |
| 2026-04-26 17:32 | -45.18744 | 170.92249 | 22559 ft | 325 kts | 207° |
| 2026-04-26 17:32 | -45.20869 | 170.91183 | 22116 ft | 323 kts | 207° |
| 2026-04-26 17:32 | -45.22991 | 170.90119 | 21799 ft | 324 kts | 207° |
| 2026-04-26 17:33 | -45.25161 | 170.89022 | 21552 ft | 338 kts | 207° |
| 2026-04-26 17:33 | -45.27369 | 170.87900 | 21297 ft | 343 kts | 208° |
| 2026-04-26 17:33 | -45.29518 | 170.86500 | 20825 ft | 338 kts | 215° |
| 2026-04-26 17:34 | -45.33532 | 170.83158 | 19890 ft | 331 kts | 216° |
| 2026-04-26 17:34 | -45.35503 | 170.81514 | 19443 ft | 327 kts | 216° |
| 2026-04-26 17:34 | -45.37456 | 170.79890 | 19006 ft | 323 kts | 216° |
| 2026-04-26 17:34 | -45.39392 | 170.78285 | 18576 ft | 320 kts | 216° |
| 2026-04-26 17:35 | -45.41307 | 170.76698 | 18143 ft | 318 kts | 215° |
| 2026-04-26 17:35 | -45.43210 | 170.75122 | 17670 ft | 315 kts | 215° |
| 2026-04-26 17:35 | -45.45088 | 170.73567 | 17244 ft | 311 kts | 215° |
| 2026-04-26 17:35 | -45.46948 | 170.72026 | 16821 ft | 307 kts | 215° |
| 2026-04-26 17:36 | -45.48787 | 170.70501 | 16410 ft | 304 kts | 215° |
| 2026-04-26 17:36 | -45.50609 | 170.68990 | 15916 ft | 303 kts | 215° |
| 2026-04-26 17:36 | -45.52431 | 170.67475 | 15432 ft | 303 kts | 215° |
| 2026-04-26 17:36 | -45.54249 | 170.65965 | 14980 ft | 301 kts | 215° |
| 2026-04-26 17:37 | -45.56054 | 170.64464 | 14567 ft | 299 kts | 215° |
| 2026-04-26 17:37 | -45.57846 | 170.62973 | 14157 ft | 297 kts | 215° |
| 2026-04-26 17:37 | -45.59621 | 170.61496 | 13775 ft | 295 kts | 216° |
| 2026-04-26 17:38 | -45.63133 | 170.58568 | 12926 ft | 289 kts | 216° |
| 2026-04-26 17:38 | -45.64862 | 170.57135 | 12558 ft | 285 kts | 216° |
| 2026-04-26 17:38 | -45.66566 | 170.55709 | 12189 ft | 282 kts | 216° |
| 2026-04-26 17:38 | -45.68214 | 170.54198 | 11781 ft | 281 kts | 224° |
| 2026-04-26 17:39 | -45.69629 | 170.52295 | 11376 ft | 280 kts | 231° |
| 2026-04-26 17:39 | -45.70811 | 170.50055 | 10975 ft | 284 kts | 240° |
| 2026-04-26 17:39 | -45.71872 | 170.47661 | 10757 ft | 284 kts | 238° |
| 2026-04-26 17:39 | -45.72958 | 170.45350 | 10629 ft | 274 kts | 239° |
| 2026-04-26 17:40 | -45.73952 | 170.43087 | 10510 ft | 263 kts | 241° |
| 2026-04-26 17:40 | -45.74570 | 170.41618 | 10400 ft | 257 kts | 239° |
| 2026-04-26 17:40 | -45.75858 | 170.38832 | 10249 ft | 245 kts | 238° |
| 2026-04-26 17:40 | -45.76804 | 170.36847 | 10145 ft | 238 kts | 238° |
| 2026-04-26 17:41 | -45.77725 | 170.34936 | 10042 ft | 229 kts | 238° |
| 2026-04-26 17:41 | -45.78620 | 170.33069 | 9788 ft | 226 kts | 238° |
| 2026-04-26 17:41 | -45.79487 | 170.31229 | 9543 ft | 223 kts | 238° |
| 2026-04-26 17:41 | -45.80352 | 170.29399 | 9310 ft | 219 kts | 238° |
| 2026-04-26 17:42 | -45.81275 | 170.27698 | 9003 ft | 218 kts | 215° |
| 2026-04-26 17:42 | -45.82705 | 170.26958 | 8796 ft | 214 kts | 220° |
| 2026-04-26 17:42 | -45.83375 | 170.25256 | 8714 ft | 199 kts | 260° |
| 2026-04-26 17:42 | -45.83729 | 170.23342 | 8528 ft | 204 kts | 239° |
| 2026-04-26 17:43 | -45.84575 | 170.21661 | 8293 ft | 211 kts | 239° |
| 2026-04-26 17:43 | -45.85375 | 170.19843 | 8059 ft | 220 kts | 239° |
| 2026-04-26 17:43 | -45.86193 | 170.17968 | 7563 ft | 231 kts | 240° |
| 2026-04-26 17:43 | -45.87042 | 170.16019 | 7266 ft | 232 kts | 239° |
| 2026-04-26 17:44 | -45.87959 | 170.14109 | 7039 ft | 232 kts | 235° |
| 2026-04-26 17:44 | -45.88827 | 170.12195 | 6856 ft | 223 kts | 243° |
| 2026-04-26 17:44 | -45.89602 | 170.10288 | 6607 ft | 219 kts | 239° |
| 2026-04-26 17:44 | -45.90414 | 170.08448 | 6349 ft | 218 kts | 239° |
| 2026-04-26 17:45 | -45.91224 | 170.06605 | 6053 ft | 218 kts | 239° |
| 2026-04-26 17:45 | -45.92030 | 170.04772 | 5788 ft | 217 kts | 239° |
| 2026-04-26 17:45 | -45.92849 | 170.02944 | 5514 ft | 217 kts | 238° |
| 2026-04-26 17:45 | -45.93653 | 170.01149 | 5300 ft | 209 kts | 240° |
| 2026-04-26 17:46 | -45.94437 | 169.99394 | 5064 ft | 207 kts | 239° |
| 2026-04-26 17:46 | -45.95231 | 169.97677 | 5003 ft | 207 kts | 238° |
| 2026-04-26 17:46 | -45.96018 | 169.95985 | 5006 ft | 201 kts | 239° |
| 2026-04-26 17:46 | -45.96779 | 169.94364 | 5000 ft | 190 kts | 239° |
| 2026-04-26 17:47 | -45.97495 | 169.92844 | 4983 ft | 177 kts | 238° |
| 2026-04-26 17:47 | -45.98030 | 169.91992 | 5013 ft | 173 kts | 222° |
| 2026-04-26 17:47 | -45.99572 | 169.91268 | 5009 ft | 180 kts | 195° |
| 2026-04-26 17:47 | -46.00826 | 169.91530 | 5013 ft | 186 kts | 174° |
| 2026-04-26 17:48 | -46.02006 | 169.92426 | 4730 ft | 200 kts | 160° |
| 2026-04-26 17:48 | -46.02990 | 169.93954 | 4272 ft | 221 kts | 123° |
| 2026-04-26 17:48 | -46.03316 | 169.96138 | 3832 ft | 230 kts | 94° |
| 2026-04-26 17:48 | -46.02824 | 169.98319 | 3394 ft | 228 kts | 51° |
| 2026-04-26 17:49 | -46.01843 | 170.00004 | 3082 ft | 218 kts | 57° |
| 2026-04-26 17:49 | -46.01239 | 170.01924 | 2857 ft | 203 kts | 67° |
| 2026-04-26 17:49 | -46.00539 | 170.03608 | 2530 ft | 194 kts | 55° |
| 2026-04-26 17:49 | -45.99820 | 170.05074 | 2318 ft | 174 kts | 54° |
| 2026-04-26 17:50 | -45.99168 | 170.06441 | 2060 ft | 162 kts | 52° |
| 2026-04-26 17:50 | -45.98541 | 170.07767 | 1862 ft | 162 kts | 52° |
| 2026-04-26 17:50 | -45.97902 | 170.09129 | 1636 ft | 165 kts | 53° |
| 2026-04-26 17:50 | -45.97269 | 170.10475 | 1405 ft | 160 kts | 54° |
| 2026-04-26 17:51 | -45.96656 | 170.11782 | 1191 ft | 155 kts | 53° |
| 2026-04-26 17:51 | -45.96056 | 170.13059 | 991 ft | 153 kts | 54° |
| 2026-04-26 17:51 | -45.95470 | 170.14306 | 778 ft | 147 kts | 54° |
| 2026-04-26 17:51 | -45.94913 | 170.15491 | 581 ft | 139 kts | 55° |
| 2026-04-26 17:52 | -45.94391 | 170.16603 | 397 ft | 133 kts | 55° |
| 2026-04-26 17:52 | -45.93883 | 170.17690 | 248 ft | 129 kts | 56° |
| 2026-04-26 17:52 | -45.93373 | 170.18775 | 41 ft | 131 kts | 56° |
| 2026-04-26 17:52 | -45.92913 | 170.19750 | -1 ft | 96 kts | 56° |
| 2026-04-26 17:53 | -45.92663 | 170.20286 | -2 ft | 43 kts | 56° |
| 2026-04-26 17:53 | -45.92513 | 170.20602 | -4 ft | 26 kts | 55° |
| 2026-04-26 17:53 | -45.92432 | 170.20722 | -3 ft | 10 kts | 70° |
| 2026-04-26 17:54 | -45.92487 | 170.20659 | -4 ft | 15 kts | 236° |
| 2026-04-26 17:54 | -45.92563 | 170.20495 | -3 ft | 24 kts | 236° |
| 2026-04-26 17:54 | -45.92666 | 170.20274 | -2 ft | 16 kts | 236° |
| 2026-04-26 17:54 | -45.92671 | 170.20152 | 0 ft | 13 kts | 315° |
| 2026-04-26 17:55 | -45.92598 | 170.20081 | -1 ft | 12 kts | 327° |
| 2026-04-26 17:55 | -45.92527 | 170.20018 | -1 ft | 11 kts | 340° |
| 2026-04-26 17:55 | -45.92474 | 170.20058 | -1 ft | 9 kts | 51° |
| 2026-04-26 17:55 | -45.92441 | 170.20124 | -1 ft | 7 kts | 48° |
| 2026-04-26 17:56 | -45.92407 | 170.20128 | -1 ft | 4 kts | 332° |
| 2026-04-26 17:56 | -45.92387 | 170.20110 | -1 ft | 0 kts | 327° |